Time;durP1;ratioP1;P1;durP2;ratioP2;P2;SDS_P1;SDS_P2;PMS_P1;PMS_P2;Temp;Humidity;BMP_temperature;BMP_pressure;BME280_temperature;BME280_humidity;BME280_pressure;Samples;Min_cycle;Max_cycle;Signal;HPM_P1;HPM_P2
2023/06/11 00:01:19;;;;;;;184.23;176.13;;;15.90;99.90;;;;;;5058239;28;20197;-89
2023/06/11 00:03:46;;;;;;;140.50;135.57;;;16.00;99.90;;;;;;5042597;28;20211;-89
2023/06/11 00:06:17;;;;;;;33.07;31.37;;;15.90;99.90;;;;;;5059242;28;20189;-88
2023/06/11 00:08:47;;;;;;;24.87;23.30;;;15.90;99.90;;;;;;5074305;28;20185;-90
2023/06/11 00:11:16;;;;;;;37.47;35.80;;;15.70;99.90;;;;;;5059980;28;20284;-89
2023/06/11 00:13:41;;;;;;;226.00;217.90;;;15.70;99.90;;;;;;5058329;28;20181;-90
2023/06/11 00:16:07;;;;;;;406.87;393.67;;;15.70;99.90;;;;;;5077491;28;20245;-89
2023/06/11 00:18:33;;;;;;;376.43;364.40;;;15.70;99.90;;;;;;5040616;28;20272;-89
2023/06/11 00:20:59;;;;;;;312.00;301.73;;;15.70;99.90;;;;;;5043906;28;20554;-89
2023/06/11 00:23:25;;;;;;;359.07;347.60;;;15.80;99.90;;;;;;5041894;28;20411;-88
2023/06/11 00:25:55;;;;;;;289.17;280.40;;;15.70;99.90;;;;;;5062329;28;20185;-89
2023/06/11 00:28:21;;;;;;;132.83;128.00;;;15.70;99.90;;;;;;5059490;28;20189;-89
2023/06/11 00:30:46;;;;;;;40.27;38.07;;;15.80;99.90;;;;;;5077970;28;20646;-88
2023/06/11 00:33:12;;;;;;;12.77;12.03;;;15.70;99.90;;;;;;5059534;28;20189;-91
2023/06/11 00:35:38;;;;;;;11.53;10.43;;;15.80;99.90;;;;;;5059992;28;20201;-89
2023/06/11 00:38:05;;;;;;;55.73;52.93;;;15.80;99.90;;;;;;5041657;28;20189;-91
2023/06/11 00:40:31;;;;;;;182.13;176.37;;;15.80;99.90;;;;;;5057147;28;20189;-89
2023/06/11 00:42:57;;;;;;;303.77;293.83;;;15.90;99.90;;;;;;5057389;28;20732;-89
2023/06/11 00:45:24;;;;;;;170.97;165.13;;;15.90;99.90;;;;;;5040101;28;20706;-92
2023/06/11 00:47:50;;;;;;;253.80;245.67;;;16.00;99.90;;;;;;5037483;28;20181;-89
2023/06/11 00:50:16;;;;;;;278.87;269.87;;;16.00;99.90;;;;;;5055142;28;20760;-91
2023/06/11 00:52:43;;;;;;;152.03;146.47;;;16.00;99.90;;;;;;5039896;28;20180;-90
2023/06/11 00:55:11;;;;;;;94.23;91.07;;;16.00;99.90;;;;;;5058394;28;20181;-90
2023/06/11 00:57:40;;;;;;;37.47;35.40;;;16.00;99.90;;;;;;5054910;28;20197;-89
2023/06/11 01:00:12;;;;;;;29.80;28.03;;;15.90;99.90;;;;;;5054998;28;20534;-88
2023/06/11 01:02:53;;;;;;;45.37;43.33;;;15.90;99.90;;;;;;5023520;28;20299;-90
2023/06/11 01:05:23;;;;;;;137.07;132.13;;;15.80;99.90;;;;;;5055620;28;20227;-90
2023/06/11 01:07:55;;;;;;;344.33;333.27;;;15.80;99.90;;;;;;5054325;28;20181;-91
2023/06/11 01:10:21;;;;;;;409.53;396.10;;;15.80;99.90;;;;;;5021855;28;20546;-90
2023/06/11 01:12:47;;;;;;;360.33;348.63;;;15.80;99.90;;;;;;5071831;28;20200;-90
2023/06/11 01:15:14;;;;;;;312.30;301.90;;;15.70;99.90;;;;;;5036317;28;20276;-89
2023/06/11 01:18:10;;;;;;;293.60;284.40;;;15.60;99.90;;;;;;5049332;28;21083;-87
2023/06/11 01:20:49;;;;;;;267.87;259.47;;;15.80;99.90;;;;;;5052635;28;21100;-88
2023/06/11 01:23:20;;;;;;;209.30;202.73;;;15.80;99.90;;;;;;5052243;28;20701;-90
2023/06/11 01:26:15;;;;;;;171.53;165.90;;;15.80;99.90;;;;;;5050802;28;20612;-88
2023/06/11 01:28:44;;;;;;;95.87;92.17;;;15.80;99.90;;;;;;5067305;28;20725;-89
2023/06/11 01:31:15;;;;;;;39.00;37.03;;;15.80;99.90;;;;;;5052489;28;20186;-89
2023/06/11 01:33:42;;;;;;;18.10;16.40;;;15.70;99.90;;;;;;5048737;28;20236;-88
2023/06/11 01:36:10;;;;;;;13.70;12.80;;;15.60;99.90;;;;;;5050880;28;20280;-90
2023/06/11 01:38:42;;;;;;;19.03;17.67;;;15.60;99.90;;;;;;5049707;28;20193;-89
2023/06/11 01:41:12;;;;;;;32.23;30.63;;;15.60;99.90;;;;;;5051499;28;20212;-88
2023/06/11 01:43:38;;;;;;;39.13;37.33;;;15.60;99.90;;;;;;5053421;28;20186;-90
2023/06/11 01:46:04;;;;;;;42.27;40.37;;;15.60;99.90;;;;;;5017470;28;20202;-92
2023/06/11 01:48:30;;;;;;;69.50;66.23;;;15.50;99.90;;;;;;5033893;28;20713;-88
2023/06/11 01:50:56;;;;;;;168.13;162.57;;;15.60;99.90;;;;;;5051936;28;20214;-90
2023/06/11 01:53:22;;;;;;;303.43;293.67;;;15.50;99.90;;;;;;5050738;28;20654;-90
2023/06/11 01:55:47;;;;;;;333.40;322.90;;;15.50;99.90;;;;;;5049461;28;20210;-91
2023/06/11 01:58:13;;;;;;;239.80;231.80;;;15.60;99.90;;;;;;5048881;28;20609;-87
2023/06/11 02:00:39;;;;;;;143.53;138.73;;;15.60;99.90;;;;;;5035854;28;20234;-91
2023/06/11 02:03:06;;;;;;;179.63;173.63;;;15.70;99.90;;;;;;5031995;28;20631;-88
2023/06/11 02:05:32;;;;;;;321.87;311.67;;;15.70;99.90;;;;;;5050909;28;20284;-89
2023/06/11 02:07:57;;;;;;;331.67;320.70;;;15.80;99.90;;;;;;5049061;28;20208;-90
2023/06/11 02:10:23;;;;;;;294.83;285.93;;;15.80;99.90;;;;;;5051567;28;20200;-88
2023/06/11 02:12:49;;;;;;;256.13;248.20;;;15.90;99.90;;;;;;5033319;28;20185;-89
2023/06/11 02:15:15;;;;;;;211.63;204.93;;;15.80;99.90;;;;;;5033270;28;20211;-91
2023/06/11 02:17:41;;;;;;;128.90;124.40;;;15.90;99.90;;;;;;5048137;28;20748;-90
2023/06/11 02:20:08;;;;;;;104.93;101.23;;;15.80;99.90;;;;;;5049161;28;20189;-87
2023/06/11 02:22:34;;;;;;;112.60;108.50;;;15.80;99.90;;;;;;5035967;28;20212;-87
2023/06/11 02:25:00;;;;;;;113.50;109.23;;;15.80;99.90;;;;;;5033312;28;20190;-88
2023/06/11 02:27:26;;;;;;;66.17;63.47;;;15.80;99.90;;;;;;5047329;28;20286;-89
2023/06/11 02:29:52;;;;;;;30.00;28.40;;;15.80;99.90;;;;;;5048883;28;20189;-88
2023/06/11 02:32:18;;;;;;;19.50;17.83;;;15.80;99.90;;;;;;5051196;28;20185;-90
2023/06/11 02:34:44;;;;;;;21.27;19.80;;;15.70;99.90;;;;;;5034590;28;20238;-90
2023/06/11 02:37:09;;;;;;;26.47;24.80;;;15.60;99.90;;;;;;5034802;28;20225;-88
2023/06/11 02:39:35;;;;;;;27.90;26.43;;;15.60;99.90;;;;;;5022108;28;20462;-90
2023/06/11 02:42:01;;;;;;;25.37;23.93;;;15.60;99.90;;;;;;5038130;28;20698;-91
2023/06/11 02:44:27;;;;;;;23.77;22.50;;;15.60;99.90;;;;;;5051980;28;20706;-90
2023/06/11 02:46:52;;;;;;;22.20;21.00;;;15.60;99.90;;;;;;5023602;28;20189;-88
2023/06/11 02:49:20;;;;;;;24.97;23.67;;;15.70;99.90;;;;;;5051347;28;20251;-89
2023/06/11 02:51:45;;;;;;;45.80;43.57;;;15.70;99.90;;;;;;5053299;28;20193;-88
2023/06/11 02:54:11;;;;;;;70.83;67.93;;;15.70;99.90;;;;;;5021595;28;20182;-87
2023/06/11 02:56:37;;;;;;;136.27;131.30;;;15.70;99.90;;;;;;5035827;28;21037;-88
2023/06/11 02:59:03;;;;;;;179.67;173.77;;;15.60;99.90;;;;;;5053826;28;20750;-90
2023/06/11 03:01:28;;;;;;;254.07;246.30;;;15.60;99.90;;;;;;5020446;28;20178;-90
2023/06/11 03:03:54;;;;;;;305.90;296.23;;;15.60;99.90;;;;;;5054189;28;20220;-90
2023/06/11 03:06:20;;;;;;;336.57;326.10;;;15.50;99.90;;;;;;5020444;28;20198;-89
2023/06/11 03:08:45;;;;;;;354.30;343.07;;;15.50;99.90;;;;;;5022246;28;20190;-91
2023/06/11 03:11:11;;;;;;;382.13;369.83;;;15.50;99.90;;;;;;5054087;28;20231;-89
2023/06/11 03:13:37;;;;;;;415.87;402.23;;;15.50;99.90;;;;;;5053929;28;20669;-90
2023/06/11 03:16:03;;;;;;;419.03;405.07;;;15.50;99.90;;;;;;5039743;28;20260;-89
2023/06/11 03:18:29;;;;;;;437.03;422.83;;;15.50;99.90;;;;;;5036347;28;20200;-89
2023/06/11 03:20:54;;;;;;;428.03;413.37;;;15.60;99.90;;;;;;5051994;28;20201;-89
2023/06/11 03:23:20;;;;;;;439.07;424.53;;;15.60;99.90;;;;;;5021772;28;20274;-87
2023/06/11 03:25:46;;;;;;;433.07;418.60;;;15.50;99.90;;;;;;5052857;28;20866;-87
2023/06/11 03:28:11;;;;;;;413.33;399.67;;;15.50;99.90;;;;;;5037762;28;20217;-89
2023/06/11 03:30:37;;;;;;;411.57;398.23;;;15.50;99.90;;;;;;5056878;28;20665;-86
2023/06/11 03:33:03;;;;;;;381.70;369.13;;;15.60;99.90;;;;;;5024341;28;20186;-91
2023/06/11 03:35:29;;;;;;;353.13;342.10;;;15.60;99.90;;;;;;5041964;28;20705;-89
2023/06/11 03:37:55;;;;;;;333.27;322.67;;;15.70;99.90;;;;;;5059687;28;20331;-88
2023/06/11 03:40:20;;;;;;;316.10;306.47;;;15.70;99.90;;;;;;5058595;28;20178;-88
2023/06/11 03:42:46;;;;;;;298.00;289.07;;;15.80;99.90;;;;;;5058782;28;20243;-88
2023/06/11 03:45:12;;;;;;;293.47;284.63;;;15.80;99.90;;;;;;5055280;28;20978;-88
2023/06/11 03:47:37;;;;;;;281.93;273.13;;;15.80;99.90;;;;;;5057759;28;20281;-88
2023/06/11 03:50:04;;;;;;;272.70;264.23;;;15.90;99.90;;;;;;5055269;28;20220;-88
2023/06/11 03:52:30;;;;;;;290.70;281.37;;;15.90;99.90;;;;;;5041287;28;20240;-89
2023/06/11 03:54:59;;;;;;;271.60;263.07;;;15.90;99.90;;;;;;5038744;28;20178;-90
2023/06/11 03:57:24;;;;;;;292.53;283.57;;;16.00;99.90;;;;;;5054453;28;20212;-89
2023/06/11 03:59:50;;;;;;;299.57;289.93;;;16.00;99.90;;;;;;5057337;28;20190;-91
2023/06/11 04:02:16;;;;;;;305.20;295.73;;;16.00;99.90;;;;;;5057867;28;20212;-88
2023/06/11 04:04:41;;;;;;;307.23;297.37;;;16.10;99.90;;;;;;5040254;28;20194;-88
2023/06/11 04:07:07;;;;;;;325.93;315.83;;;16.10;99.90;;;;;;5022781;28;20182;-87
2023/06/11 04:09:33;;;;;;;309.00;299.30;;;16.20;99.90;;;;;;5024181;28;20181;-89
2023/06/11 04:11:59;;;;;;;311.03;301.57;;;16.20;99.90;;;;;;5057553;28;20282;-87
2023/06/11 04:14:25;;;;;;;298.53;289.33;;;16.30;99.90;;;;;;5039494;28;20585;-88
2023/06/11 04:16:50;;;;;;;273.73;265.33;;;16.30;99.90;;;;;;5055968;28;20702;-91
2023/06/11 04:19:18;;;;;;;269.20;260.47;;;16.40;99.90;;;;;;5021373;28;20186;-88
2023/06/11 04:21:44;;;;;;;248.13;240.50;;;16.50;99.90;;;;;;5054975;28;20283;-88
2023/06/11 04:24:10;;;;;;;228.00;220.83;;;16.40;99.90;;;;;;5053685;28;20198;-89
2023/06/11 04:26:36;;;;;;;203.17;196.60;;;16.50;99.90;;;;;;5052235;28;20201;-88
2023/06/11 04:29:03;;;;;;;206.67;200.17;;;16.60;99.90;;;;;;5059796;28;20296;-87
2023/06/11 04:31:29;;;;;;;178.43;172.70;;;16.60;99.90;;;;;;5041366;28;20696;-89
2023/06/11 04:34:03;;;;;;;165.47;160.10;;;16.70;99.90;;;;;;5056761;28;20193;-88
2023/06/11 04:36:29;;;;;;;150.73;145.27;;;16.80;99.90;;;;;;5042862;28;20224;-89
2023/06/11 04:38:55;;;;;;;140.33;135.10;;;16.80;99.90;;;;;;5039156;28;20480;-86
2023/06/11 04:41:26;;;;;;;117.77;113.43;;;16.90;99.90;;;;;;5039422;28;20696;-89
2023/06/11 04:43:52;;;;;;;104.90;101.07;;;16.90;99.90;;;;;;5025483;28;20197;-89
2023/06/11 04:46:17;;;;;;;93.17;89.37;;;17.00;99.90;;;;;;5025324;28;20193;-92
2023/06/11 04:48:43;;;;;;;87.73;84.43;;;17.10;99.90;;;;;;5022975;28;20714;-89
2023/06/11 04:51:11;;;;;;;76.80;73.53;;;17.20;99.90;;;;;;5055768;28;20627;-90
2023/06/11 04:53:38;;;;;;;69.60;66.57;;;17.30;99.90;;;;;;5040165;28;20201;-90
2023/06/11 04:56:04;;;;;;;70.47;67.77;;;17.40;99.90;;;;;;5039028;28;20233;-89
2023/06/11 04:58:33;;;;;;;68.50;65.60;;;17.50;99.90;;;;;;5054581;28;20181;-88
2023/06/11 05:00:58;;;;;;;69.13;66.20;;;17.60;99.90;;;;;;5019444;28;20205;-87
2023/06/11 05:03:27;;;;;;;72.37;69.17;;;17.70;99.90;;;;;;5040416;28;20277;-90
2023/06/11 05:05:54;;;;;;;78.20;74.87;;;17.70;99.90;;;;;;5055690;28;20712;-89
2023/06/11 05:08:24;;;;;;;73.57;70.47;;;17.80;99.90;;;;;;5054857;28;20217;-87
2023/06/11 05:10:59;;;;;;;77.17;73.97;;;17.90;99.90;;;;;;5054027;28;20218;-89
2023/06/11 05:13:26;;;;;;;72.73;69.73;;;18.00;99.90;;;;;;5055367;28;20189;-88
2023/06/11 05:15:56;;;;;;;67.93;65.13;;;18.70;99.90;;;;;;5059346;28;20225;-89
2023/06/11 05:18:25;;;;;;;56.90;54.40;;;20.20;99.90;;;;;;5059325;28;20200;-85
2023/06/11 05:20:51;;;;;;;66.70;63.97;;;21.50;99.90;;;;;;5042178;28;20197;-87
2023/06/11 05:23:18;;;;;;;92.50;89.10;;;21.60;99.90;;;;;;5077967;28;20184;-88
2023/06/11 05:25:47;;;;;;;114.53;110.50;;;20.70;99.90;;;;;;5075535;28;20200;-90
2023/06/11 05:28:14;;;;;;;147.60;142.53;;;21.30;99.90;;;;;;5042872;28;20245;-92
2023/06/11 05:30:43;;;;;;;198.87;192.47;;;22.00;99.90;;;;;;5060039;28;20181;-89
2023/06/11 05:33:09;;;;;;;228.70;221.40;;;22.70;99.90;;;;;;5057636;28;20199;-89
2023/06/11 05:35:36;;;;;;;224.37;217.07;;;23.20;99.90;;;;;;5074077;28;20205;-88
2023/06/11 05:38:06;;;;;;;212.60;205.97;;;23.20;99.90;;;;;;5055134;28;20185;-89
2023/06/11 05:40:35;;;;;;;197.82;191.40;;;23.30;99.90;;;;;;5060950;28;20217;-90
2023/06/11 05:43:00;;;;;;;214.65;208.00;;;23.40;99.90;;;;;;5076534;28;20185;-90
2023/06/11 05:45:26;;;;;;;230.90;223.88;;;24.20;99.90;;;;;;5057950;28;21057;-90
2023/06/11 05:47:52;;;;;;;257.73;249.93;;;24.10;99.90;;;;;;5025469;28;20181;-91
2023/06/11 05:50:18;;;;;;;286.02;276.63;;;24.00;99.90;;;;;;5061022;28;20668;-90
2023/06/11 05:52:44;;;;;;;319.05;309.10;;;23.80;99.90;;;;;;5039843;28;20234;-88
2023/06/11 05:55:10;;;;;;;319.60;309.73;;;23.80;99.90;;;;;;5041853;28;20185;-92
2023/06/11 05:57:36;;;;;;;333.35;323.17;;;23.50;99.90;;;;;;5059379;28;20231;-90
2023/06/11 06:00:03;;;;;;;334.98;324.45;;;23.50;99.90;;;;;;5035795;28;20256;-92
2023/06/11 06:02:28;;;;;;;345.38;334.73;;;23.30;99.90;;;;;;5021632;28;20302;-89
2023/06/11 06:04:55;;;;;;;326.33;316.27;;;23.50;99.90;;;;;;5023585;28;20189;-90
2023/06/11 06:07:20;;;;;;;325.20;315.15;;;23.90;99.90;;;;;;5040006;28;20188;-89
2023/06/11 06:09:46;;;;;;;334.75;324.23;;;24.20;99.90;;;;;;5071284;28;20743;-89
2023/06/11 06:12:12;;;;;;;298.02;288.88;;;24.40;99.90;;;;;;5036737;28;20763;-87
2023/06/11 06:14:38;;;;;;;287.55;278.40;;;24.00;99.90;;;;;;5036135;28;20186;-90
2023/06/11 06:17:04;;;;;;;262.60;254.35;;;24.00;99.90;;;;;;5033804;28;20244;-89
2023/06/11 06:19:30;;;;;;;240.10;232.60;;;24.00;99.90;;;;;;5053908;28;20189;-90
2023/06/11 06:21:56;;;;;;;249.05;241.13;;;23.80;99.90;;;;;;5037511;28;20185;-88
2023/06/11 06:24:22;;;;;;;233.93;226.35;;;23.40;99.90;;;;;;5037648;28;20244;-92
2023/06/11 06:26:51;;;;;;;251.20;243.35;;;23.10;99.90;;;;;;5045914;28;20243;-88
2023/06/11 06:29:17;;;;;;;213.70;206.93;;;23.30;99.90;;;;;;5022226;28;20721;-93
2023/06/11 06:31:43;;;;;;;232.57;225.15;;;23.20;99.90;;;;;;5037527;28;20192;-91
2023/06/11 06:34:09;;;;;;;215.07;208.35;;;23.00;99.90;;;;;;5055753;28;20192;-93
2023/06/11 06:36:38;;;;;;;224.73;217.63;;;23.30;99.90;;;;;;5038125;28;20205;-92
2023/06/11 06:39:05;;;;;;;244.15;236.65;;;23.40;99.90;;;;;;5056740;28;20218;-94
2023/06/11 06:41:30;;;;;;;215.90;209.23;;;23.90;99.90;;;;;;5057785;28;20185;-94
2023/06/11 06:43:56;;;;;;;173.18;167.48;;;24.30;99.90;;;;;;5042407;28;20188;-93
2023/06/11 06:46:22;;;;;;;173.82;168.23;;;24.00;99.90;;;;;;5057540;28;20189;-93
2023/06/11 06:48:50;;;;;;;155.40;150.27;;;24.10;99.90;;;;;;5062018;28;20217;-92
2023/06/11 06:51:17;;;;;;;155.10;149.68;;;23.60;99.90;;;;;;5041216;28;20805;-92
2023/06/11 06:53:43;;;;;;;138.90;134.05;;;23.80;99.90;;;;;;5042370;28;20185;-92
2023/06/11 06:56:09;;;;;;;147.93;142.93;;;23.80;99.90;;;;;;5039798;28;20234;-94
2023/06/11 06:58:35;;;;;;;135.23;130.00;;;24.00;99.90;;;;;;5057570;28;20197;-93
2023/06/11 07:01:01;;;;;;;157.40;152.25;;;24.00;99.90;;;;;;5074014;28;20694;-93
2023/06/11 07:03:27;;;;;;;139.98;135.23;;;23.90;99.90;;;;;;5057598;28;20660;-89
2023/06/11 07:05:52;;;;;;;129.60;125.25;;;23.80;99.90;;;;;;5055617;28;20180;-93
2023/06/11 07:08:18;;;;;;;126.90;122.65;;;23.90;99.90;;;;;;5053040;28;20192;-89
2023/06/11 07:10:55;;;;;;;125.93;121.47;;;24.30;99.90;;;;;;5037587;28;20185;-90
2023/06/11 07:13:24;;;;;;;133.77;129.30;;;24.60;99.90;;;;;;5054631;28;20246;-91
2023/06/11 07:15:50;;;;;;;143.82;139.05;;;24.80;99.90;;;;;;5053762;28;20213;-90
2023/06/11 07:18:16;;;;;;;140.68;135.88;;;24.70;99.90;;;;;;5038942;28;20190;-91
2023/06/11 07:20:43;;;;;;;132.93;128.35;;;24.90;99.90;;;;;;5042128;28;20496;-89
2023/06/11 07:23:09;;;;;;;140.95;136.43;;;24.90;99.90;;;;;;5041041;28;20185;-93
2023/06/11 07:25:37;;;;;;;133.57;129.00;;;25.00;99.90;;;;;;5059736;28;20238;-90
2023/06/11 07:28:04;;;;;;;152.15;147.10;;;24.80;99.90;;;;;;5060084;28;20197;-91
2023/06/11 07:30:32;;;;;;;149.23;144.15;;;25.10;99.90;;;;;;5059093;28;20181;-90
2023/06/11 07:32:59;;;;;;;145.95;141.07;;;25.20;99.90;;;;;;5044791;28;21566;-91
2023/06/11 07:35:25;;;;;;;132.85;128.55;;;25.80;99.90;;;;;;5058533;28;20263;-90
2023/06/11 07:37:52;;;;;;;103.75;100.13;;;25.60;99.90;;;;;;5046528;28;20185;-89
2023/06/11 07:40:18;;;;;;;109.75;105.50;;;25.80;99.90;;;;;;5072015;28;20199;-90
2023/06/11 07:42:46;;;;;;;111.70;107.78;;;25.80;99.90;;;;;;5040858;28;20804;-84
2023/06/11 07:45:12;;;;;;;120.35;116.22;;;26.10;99.90;;;;;;5059315;28;20552;-87
2023/06/11 07:47:39;;;;;;;123.47;119.32;;;26.30;99.90;;;;;;5043209;28;20235;-88
2023/06/11 07:50:06;;;;;;;120.22;116.22;;;26.30;99.90;;;;;;5058698;28;20176;-86
2023/06/11 07:52:31;;;;;;;110.22;106.35;;;26.80;99.90;;;;;;5059087;28;20189;-86
2023/06/11 07:54:57;;;;;;;120.70;116.70;;;26.70;99.90;;;;;;5043667;28;20213;-87
2023/06/11 07:57:23;;;;;;;124.82;120.65;;;26.50;99.90;;;;;;5079078;28;20396;-88
2023/06/11 07:59:49;;;;;;;135.57;130.88;;;26.80;99.90;;;;;;5044258;28;20188;-90
2023/06/11 08:02:15;;;;;;;141.57;136.65;;;26.80;99.90;;;;;;5041337;28;20177;-87
2023/06/11 08:04:41;;;;;;;136.75;131.90;;;26.60;99.90;;;;;;5044328;28;20182;-91
2023/06/11 08:07:07;;;;;;;146.75;141.90;;;26.30;99.90;;;;;;5042868;28;20486;-89
2023/06/11 08:09:35;;;;;;;146.88;141.85;;;26.70;99.90;;;;;;5062157;28;20227;-91
2023/06/11 08:12:05;;;;;;;134.60;130.15;;;26.40;99.90;;;;;;5058476;28;20196;-90
2023/06/11 08:14:32;;;;;;;130.27;125.93;;;26.80;99.90;;;;;;5059196;28;20305;-89
2023/06/11 08:16:58;;;;;;;137.90;133.10;;;26.70;99.90;;;;;;5061806;28;20319;-91
2023/06/11 08:19:24;;;;;;;144.13;139.18;;;26.90;99.90;;;;;;5028522;28;20694;-89
2023/06/11 08:21:50;;;;;;;131.90;127.40;;;27.10;99.90;;;;;;5062420;28;20259;-90
2023/06/11 08:24:18;;;;;;;145.32;140.57;;;26.90;99.90;;;;;;5042788;28;20190;-92
2023/06/11 08:26:44;;;;;;;143.25;138.63;;;27.10;99.90;;;;;;5059061;28;20251;-91
2023/06/11 08:29:10;;;;;;;135.95;131.60;;;26.70;99.90;;;;;;5046470;28;20238;-92
2023/06/11 08:31:37;;;;;;;146.25;141.43;;;27.00;99.90;;;;;;5060249;28;20635;-92
2023/06/11 08:34:03;;;;;;;148.27;143.40;;;27.40;99.90;;;;;;5062604;28;20267;-92
2023/06/11 08:36:34;;;;;;;143.52;138.30;;;27.70;99.90;;;;;;5064065;28;20333;-91
2023/06/11 08:39:01;;;;;;;145.93;141.00;;;27.60;99.90;;;;;;5080584;28;20181;-92
2023/06/11 08:41:29;;;;;;;146.50;141.65;;;28.10;99.90;;;;;;5061174;28;20197;-92
2023/06/11 08:43:58;;;;;;;150.43;145.48;;;28.00;99.90;;;;;;5060361;28;20191;-89
2023/06/11 08:46:24;;;;;;;132.48;127.78;;;28.30;99.90;;;;;;5078522;28;20200;-90
2023/06/11 08:49:05;;;;;;;131.55;127.10;;;27.80;99.90;;;;;;5059584;28;20250;-90
2023/06/11 08:51:37;;;;;;;129.18;124.85;;;27.70;99.90;;;;;;5061407;28;20442;-92
2023/06/11 08:54:07;;;;;;;130.70;126.22;;;28.00;99.90;;;;;;5062262;28;20185;-92
2023/06/11 08:56:34;;;;;;;126.65;122.30;;;27.90;99.90;;;;;;5055577;28;20217;-90
2023/06/11 08:59:00;;;;;;;151.07;146.25;;;27.70;99.90;;;;;;5058324;28;20665;-85
2023/06/11 09:01:26;;;;;;;125.38;121.25;;;28.80;99.90;;;;;;5056505;28;20767;-87
2023/06/11 09:03:52;;;;;;;126.18;121.90;;;28.60;99.90;;;;;;5055371;28;20181;-90
2023/06/11 09:06:18;;;;;;;129.30;125.03;;;28.90;99.90;;;;;;5041814;28;20193;-92
2023/06/11 09:09:05;;;;;;;126.63;122.35;;;28.20;99.90;;;;;;5042745;28;20201;-90
2023/06/11 09:11:35;;;;;;;119.72;115.50;;;27.90;99.90;;;;;;5060163;28;20635;-91
2023/06/11 09:14:02;;;;;;;130.27;125.95;;;28.40;99.90;;;;;;5058123;28;20606;-92
2023/06/11 09:16:36;;;;;;;124.00;119.70;;;28.90;99.90;;;;;;5058330;28;20264;-88
2023/06/11 09:19:02;;;;;;;117.10;112.97;;;29.10;99.90;;;;;;5074473;28;20268;-90
2023/06/11 09:21:28;;;;;;;112.38;108.57;;;28.30;99.90;;;;;;5057788;28;20288;-89
2023/06/11 09:23:54;;;;;;;131.05;126.80;;;28.30;99.90;;;;;;5042959;28;20177;-89
2023/06/11 09:26:20;;;;;;;127.88;123.53;;;28.60;99.90;;;;;;5059415;28;20234;-90
2023/06/11 09:28:50;;;;;;;127.80;123.38;;;28.90;99.90;;;;;;5057382;28;20177;-88
2023/06/11 09:31:19;;;;;;;123.20;119.13;;;28.90;99.90;;;;;;5058727;28;20296;-89
2023/06/11 09:33:45;;;;;;;134.77;130.15;;;29.70;99.90;;;;;;5058633;28;20183;-87
2023/06/11 09:36:10;;;;;;;139.20;134.55;;;30.70;99.90;;;;;;5041383;28;20205;-90
2023/06/11 09:38:36;;;;;;;148.32;143.30;;;31.10;99.90;;;;;;5077701;28;20638;-87
2023/06/11 09:41:06;;;;;;;144.65;139.77;;;30.30;99.90;;;;;;5058702;28;20247;-89
2023/06/11 09:43:33;;;;;;;128.18;123.38;;;29.90;99.90;;;;;;5078487;28;20228;-89
2023/06/11 09:46:01;;;;;;;128.57;124.18;;;29.70;99.90;;;;;;5041808;28;20189;-87
2023/06/11 09:48:28;;;;;;;130.98;126.55;;;30.20;99.90;;;;;;5076862;28;20200;-89
2023/06/11 09:50:54;;;;;;;138.07;133.43;;;29.80;99.90;;;;;;5074192;28;20655;-88
2023/06/11 09:53:22;;;;;;;134.02;129.55;;;28.90;99.90;;;;;;5059413;28;20210;-90
2023/06/11 09:55:50;;;;;;;143.75;138.88;;;29.00;99.90;;;;;;5042285;28;20221;-89
2023/06/11 09:58:22;;;;;;;134.77;130.02;;;29.20;99.90;;;;;;5056441;28;20275;-87
2023/06/11 10:00:50;;;;;;;133.60;129.05;;;28.90;99.90;;;;;;5055451;28;20209;-86
2023/06/11 10:03:16;;;;;;;145.30;140.50;;;29.10;99.90;;;;;;5053728;28;20896;-89
2023/06/11 10:05:42;;;;;;;148.68;143.75;;;29.10;99.90;;;;;;5055817;28;20192;-88
2023/06/11 10:08:21;;;;;;;143.23;138.40;;;29.70;99.90;;;;;;5057453;28;20758;-89
2023/06/11 10:10:51;;;;;;;135.88;131.20;;;29.80;99.90;;;;;;5074428;28;20181;-86
2023/06/11 10:13:55;;;;;;;141.40;136.60;;;30.20;99.90;;;;;;5053749;28;20196;-90
2023/06/11 10:16:21;;;;;;;132.95;128.68;;;30.40;99.90;;;;;;5046657;28;20293;-87
2023/06/11 10:18:48;;;;;;;137.00;132.43;;;29.50;99.90;;;;;;5054907;28;20489;-87
2023/06/11 10:21:14;;;;;;;143.50;138.43;;;29.10;99.90;;;;;;5056337;28;20642;-87
2023/06/11 10:23:44;;;;;;;149.57;144.68;;;29.50;99.90;;;;;;5041573;28;20653;-88
2023/06/11 10:26:10;;;;;;;143.15;138.38;;;30.30;99.90;;;;;;5038038;28;20189;-89
2023/06/11 10:28:37;;;;;;;145.82;140.98;;;30.10;99.90;;;;;;5056150;28;20181;-88
2023/06/11 10:31:04;;;;;;;155.85;150.55;;;29.90;99.90;;;;;;5055140;28;20195;-87
2023/06/11 10:33:45;;;;;;;166.25;160.65;;;29.90;99.90;;;;;;5055946;28;20277;-90
2023/06/11 10:36:32;;;;;;;146.60;141.65;;;30.10;99.90;;;;;;5056257;28;20217;-87
2023/06/11 10:39:08;;;;;;;147.93;143.13;;;29.50;99.90;;;;;;5055841;28;20498;-86
2023/06/11 10:41:39;;;;;;;153.25;148.20;;;29.90;99.90;;;;;;5056636;28;20216;-88
2023/06/11 10:44:06;;;;;;;141.45;136.73;;;30.20;99.90;;;;;;5058646;28;20661;-88
2023/06/11 10:46:31;;;;;;;152.68;147.77;;;30.10;99.90;;;;;;5073435;28;20181;-86
2023/06/11 10:48:57;;;;;;;159.57;154.48;;;29.90;99.90;;;;;;5041620;28;20192;-88
2023/06/11 10:51:23;;;;;;;157.45;152.23;;;29.80;99.90;;;;;;5041782;28;21029;-88
2023/06/11 10:53:58;;;;;;;148.80;144.07;;;29.50;99.90;;;;;;5056521;28;20185;-86
2023/06/11 10:56:26;;;;;;;143.52;138.77;;;29.50;99.90;;;;;;5055350;28;20212;-87
2023/06/11 10:58:53;;;;;;;145.88;141.13;;;29.10;99.90;;;;;;5059419;28;20541;-88
2023/06/11 11:01:22;;;;;;;156.30;151.07;;;29.20;99.90;;;;;;5042228;28;20740;-87
2023/06/11 11:03:52;;;;;;;171.23;165.68;;;29.10;99.90;;;;;;5042900;28;20185;-88
2023/06/11 11:06:25;;;;;;;164.43;158.90;;;29.20;99.90;;;;;;5076557;28;20200;-88
2023/06/11 11:08:52;;;;;;;143.55;138.73;;;29.60;99.90;;;;;;5077293;28;20720;-88
2023/06/11 11:11:18;;;;;;;163.90;158.20;;;29.70;99.90;;;;;;5080669;28;20192;-88
2023/06/11 11:13:48;;;;;;;157.02;151.95;;;29.40;99.90;;;;;;5079899;28;20656;-88
2023/06/11 11:16:14;;;;;;;149.40;144.55;;;29.40;99.90;;;;;;5061567;28;20240;-88
2023/06/11 11:18:40;;;;;;;148.10;143.32;;;29.30;99.90;;;;;;5061025;28;20192;-88
2023/06/11 11:21:06;;;;;;;159.73;154.38;;;29.40;99.90;;;;;;5026883;28;20901;-87
2023/06/11 11:23:32;;;;;;;140.77;136.18;;;29.20;99.90;;;;;;5044275;28;20192;-88
2023/06/11 11:25:58;;;;;;;183.27;177.45;;;29.50;99.90;;;;;;5057067;28;20180;-88
2023/06/11 11:28:23;;;;;;;147.25;142.30;;;29.50;99.90;;;;;;5042124;28;20247;-87
2023/06/11 11:30:53;;;;;;;151.63;146.65;;;29.20;99.90;;;;;;5041056;28;20257;-88
2023/06/11 11:33:18;;;;;;;151.32;146.52;;;29.60;99.90;;;;;;5042358;28;20193;-88
2023/06/11 11:35:50;;;;;;;157.40;152.35;;;29.30;99.90;;;;;;5043819;28;20189;-86
2023/06/11 11:38:15;;;;;;;145.80;140.95;;;28.90;99.90;;;;;;5061614;28;20208;-88
2023/06/11 11:40:41;;;;;;;153.65;148.70;;;29.20;99.90;;;;;;5041763;28;20204;-88
2023/06/11 11:43:13;;;;;;;146.48;141.48;;;29.50;99.90;;;;;;5043091;28;20582;-87
2023/06/11 11:45:39;;;;;;;158.10;153.13;;;29.40;99.90;;;;;;5059589;28;20208;-87
2023/06/11 11:48:07;;;;;;;128.68;124.47;;;29.70;99.90;;;;;;5042285;28;20227;-89
2023/06/11 11:50:33;;;;;;;137.10;132.57;;;29.30;99.90;;;;;;5060982;28;20186;-86
2023/06/11 11:53:11;;;;;;;142.85;138.18;;;29.50;99.90;;;;;;5058816;28;20192;-87
2023/06/11 11:55:45;;;;;;;161.23;156.13;;;29.40;99.90;;;;;;5076471;28;20188;-88
2023/06/11 11:58:16;;;;;;;150.43;145.55;;;29.60;99.90;;;;;;5027776;28;20189;-89
2023/06/11 12:00:53;;;;;;;137.55;133.02;;;29.80;99.90;;;;;;5041656;28;20189;-87
2023/06/11 12:03:23;;;;;;;139.02;134.70;;;29.70;99.90;;;;;;5041505;28;20983;-87
2023/06/11 12:06:04;;;;;;;142.32;137.77;;;29.30;99.90;;;;;;5059435;28;20264;-88
2023/06/11 12:08:31;;;;;;;124.78;120.70;;;29.70;99.90;;;;;;5057509;28;20192;-86
2023/06/11 12:10:58;;;;;;;123.35;119.28;;;29.80;99.90;;;;;;5060238;28;20266;-87
2023/06/11 12:13:24;;;;;;;119.45;115.55;;;29.60;99.90;;;;;;5077007;28;20196;-90